Time;durP1;ratioP1;P1;durP2;ratioP2;P2;SDS_P1;SDS_P2;PMS_P1;PMS_P2;Temp;Humidity;BMP_temperature;BMP_pressure;BME280_temperature;BME280_humidity;BME280_pressure;Samples;Min_cycle;Max_cycle;Signal;HPM_P1;HPM_P2
2024/04/02 00:01:36;;;;;;;13.75;7.38;;;9.30;99.90;;;;;;4938411;28;20042;-93
2024/04/02 00:04:13;;;;;;;15.70;7.05;;;9.30;99.90;;;;;;4958021;28;20027;-93
2024/04/02 00:06:39;;;;;;;11.35;5.97;;;9.30;99.90;;;;;;4954137;28;20038;-92
2024/04/02 00:09:04;;;;;;;10.55;5.95;;;9.30;99.90;;;;;;4971394;28;20046;-92
2024/04/02 00:11:30;;;;;;;12.73;5.68;;;9.30;99.90;;;;;;4954875;28;20046;-92
2024/04/02 00:13:57;;;;;;;9.57;4.57;;;9.30;99.90;;;;;;4938523;28;20077;-94
2024/04/02 00:16:23;;;;;;;10.60;5.43;;;9.30;99.90;;;;;;4938948;28;20445;-92
2024/04/02 00:18:49;;;;;;;9.73;4.35;;;9.20;99.90;;;;;;4955487;28;20122;-94
2024/04/02 00:21:15;;;;;;;6.35;2.90;;;9.20;99.90;;;;;;4942461;28;20098;-92
2024/04/02 00:23:43;;;;;;;6.72;3.45;;;9.20;99.90;;;;;;4946781;28;20042;-92
2024/04/02 00:26:09;;;;;;;8.07;3.28;;;9.20;99.90;;;;;;4954162;28;20117;-93
2024/04/02 00:28:35;;;;;;;8.05;3.33;;;9.20;99.90;;;;;;4953767;28;20134;-92
2024/04/02 00:31:02;;;;;;;9.48;4.63;;;9.10;99.90;;;;;;4955416;28;20062;-92
2024/04/02 00:33:29;;;;;;;7.43;3.17;;;9.10;99.90;;;;;;4937715;28;20521;-93
2024/04/02 00:36:05;;;;;;;8.40;3.60;;;9.00;99.90;;;;;;4953359;28;20039;-92
2024/04/02 00:38:32;;;;;;;5.82;2.55;;;8.90;99.90;;;;;;4953080;28;20047;-92
2024/04/02 00:40:58;;;;;;;9.68;2.88;;;8.90;99.90;;;;;;4937881;28;20043;-92
2024/04/02 00:43:25;;;;;;;8.68;3.95;;;8.90;99.90;;;;;;4954243;28;20118;-91
2024/04/02 00:45:51;;;;;;;10.27;3.97;;;8.90;99.90;;;;;;4970055;28;20047;-92
2024/04/02 00:48:17;;;;;;;5.15;2.00;;;8.80;99.90;;;;;;4971137;28;20085;-93
2024/04/02 00:50:44;;;;;;;7.45;2.42;;;8.70;99.90;;;;;;4936985;28;20125;-93
2024/04/02 00:53:11;;;;;;;4.65;2.30;;;8.70;99.90;;;;;;4937825;28;20437;-92
2024/04/02 00:55:40;;;;;;;7.18;2.28;;;8.60;99.90;;;;;;4937849;28;20031;-93
2024/04/02 00:58:06;;;;;;;6.65;2.70;;;8.60;99.90;;;;;;4937251;28;20092;-92
2024/04/02 01:00:35;;;;;;;6.82;2.80;;;8.60;99.90;;;;;;4952285;28;20443;-93
2024/04/02 01:03:02;;;;;;;6.60;3.20;;;8.50;99.90;;;;;;4953529;28;20039;-92
2024/04/02 01:05:28;;;;;;;7.97;2.60;;;8.50;99.90;;;;;;4937718;28;20046;-93
2024/04/02 01:07:54;;;;;;;6.72;2.50;;;8.40;99.90;;;;;;4970912;28;20030;-92
2024/04/02 01:10:20;;;;;;;6.20;2.92;;;8.40;99.90;;;;;;4952757;28;20039;-92
2024/04/02 01:12:45;;;;;;;7.68;3.40;;;8.40;99.90;;;;;;4938046;28;20041;-93
2024/04/02 01:15:11;;;;;;;8.50;2.72;;;8.30;99.90;;;;;;4953612;28;20046;-93
2024/04/02 01:17:37;;;;;;;7.40;3.05;;;8.30;99.90;;;;;;4936476;28;20557;-92
2024/04/02 01:20:03;;;;;;;5.85;2.42;;;8.30;99.90;;;;;;4969786;28;20046;-92
2024/04/02 01:22:30;;;;;;;7.75;3.05;;;8.30;99.90;;;;;;4953230;28;20063;-92
2024/04/02 01:24:59;;;;;;;7.68;2.83;;;8.30;99.90;;;;;;4970497;28;20061;-92
2024/04/02 01:27:26;;;;;;;7.75;3.13;;;8.30;99.90;;;;;;4936995;28;20372;-92
2024/04/02 01:29:52;;;;;;;6.53;2.60;;;8.30;99.90;;;;;;4936152;28;20062;-91
2024/04/02 01:32:18;;;;;;;8.68;3.30;;;8.20;99.90;;;;;;4952990;28;20031;-92
2024/04/02 01:34:43;;;;;;;8.27;3.53;;;8.20;99.90;;;;;;4952359;28;20030;-92
2024/04/02 01:37:09;;;;;;;13.25;3.85;;;8.20;99.90;;;;;;4969868;28;20118;-92
2024/04/02 01:39:35;;;;;;;8.50;3.22;;;8.20;99.90;;;;;;4969693;28;20041;-92
2024/04/02 01:42:00;;;;;;;4.97;2.38;;;8.20;99.90;;;;;;4969915;28;20523;-92
2024/04/02 01:44:26;;;;;;;10.05;3.90;;;8.10;99.90;;;;;;4969655;28;20038;-92
2024/04/02 01:46:52;;;;;;;7.43;3.38;;;8.10;99.90;;;;;;4951444;28;20096;-92
2024/04/02 01:49:17;;;;;;;6.95;2.47;;;8.10;99.90;;;;;;4936046;28;20082;-92
2024/04/02 01:51:45;;;;;;;4.18;1.70;;;8.10;99.90;;;;;;4936912;28;20042;-92
2024/04/02 01:54:11;;;;;;;8.13;2.95;;;8.10;99.90;;;;;;4936799;28;20049;-92
2024/04/02 01:56:36;;;;;;;10.50;3.00;;;8.00;99.90;;;;;;4969526;28;20038;-92
2024/04/02 01:59:02;;;;;;;6.82;3.58;;;8.00;99.90;;;;;;4968775;28;20045;-92
2024/04/02 02:01:28;;;;;;;5.88;2.60;;;8.00;99.90;;;;;;4952229;28;20506;-92
2024/04/02 02:03:53;;;;;;;5.95;2.47;;;8.00;99.90;;;;;;4937062;28;20502;-92
2024/04/02 02:06:19;;;;;;;6.78;2.78;;;7.90;99.90;;;;;;4936330;28;20050;-92
2024/04/02 02:08:44;;;;;;;6.25;2.90;;;7.90;99.90;;;;;;4969188;28;20066;-92
2024/04/02 02:11:10;;;;;;;7.53;2.92;;;7.80;99.90;;;;;;4952234;28;20049;-93
2024/04/02 02:13:38;;;;;;;10.88;3.45;;;7.80;99.90;;;;;;4951805;28;20042;-91
2024/04/02 02:16:04;;;;;;;6.07;2.25;;;7.80;99.90;;;;;;4951581;28;20089;-92
2024/04/02 02:18:30;;;;;;;6.50;2.53;;;7.80;99.90;;;;;;4951529;28;20075;-92
2024/04/02 02:20:56;;;;;;;5.57;2.25;;;7.80;99.90;;;;;;4951911;28;20509;-92
2024/04/02 02:23:22;;;;;;;3.85;1.83;;;7.70;99.90;;;;;;4951909;28;20539;-92
2024/04/02 02:25:49;;;;;;;5.38;2.03;;;7.70;99.90;;;;;;4968522;28;20101;-92
2024/04/02 02:28:14;;;;;;;7.68;2.75;;;7.70;99.90;;;;;;4969401;28;20027;-91
2024/04/02 02:30:40;;;;;;;6.45;2.20;;;7.60;99.90;;;;;;4968518;28;20530;-91
2024/04/02 02:33:06;;;;;;;6.45;2.78;;;7.60;99.90;;;;;;4936171;28;20479;-92
2024/04/02 02:35:31;;;;;;;6.82;2.72;;;7.60;99.90;;;;;;4952235;28;20042;-91
2024/04/02 02:37:58;;;;;;;7.97;2.33;;;7.50;99.90;;;;;;4951686;28;20415;-92
2024/04/02 02:40:23;;;;;;;6.25;2.17;;;7.50;99.90;;;;;;4951466;28;20031;-92
2024/04/02 02:42:49;;;;;;;7.75;2.92;;;7.50;99.90;;;;;;4936049;28;20043;-91
2024/04/02 02:45:15;;;;;;;9.32;3.28;;;7.40;99.90;;;;;;4970545;28;20042;-92
2024/04/02 02:47:40;;;;;;;5.80;2.60;;;7.40;99.90;;;;;;4970644;28;20118;-92
2024/04/02 02:50:06;;;;;;;8.45;3.63;;;7.40;99.90;;;;;;4956120;28;20034;-91
2024/04/02 02:52:32;;;;;;;6.68;2.60;;;7.40;99.90;;;;;;4961456;28;20052;-92
2024/04/02 02:54:57;;;;;;;10.82;6.45;;;7.30;99.90;;;;;;4951609;28;20085;-91
2024/04/02 02:57:23;;;;;;;8.25;3.55;;;7.40;99.90;;;;;;4951222;28;20039;-90
2024/04/02 02:59:49;;;;;;;5.20;2.10;;;7.40;99.90;;;;;;4951140;28;20447;-90
2024/04/02 03:02:15;;;;;;;5.93;2.30;;;7.40;99.90;;;;;;4969159;28;20499;-92
2024/04/02 03:04:41;;;;;;;7.15;2.40;;;7.40;99.90;;;;;;4936238;28;20059;-91
2024/04/02 03:07:07;;;;;;;5.10;2.28;;;7.40;99.90;;;;;;4952154;28;20483;-91
2024/04/02 03:09:36;;;;;;;4.38;1.63;;;7.40;99.90;;;;;;4968066;28;20034;-91
2024/04/02 03:12:02;;;;;;;4.68;2.00;;;7.40;99.90;;;;;;4968547;28;20046;-92
2024/04/02 03:14:29;;;;;;;4.80;1.45;;;7.50;99.90;;;;;;4935476;28;20042;-92
2024/04/02 03:16:55;;;;;;;5.82;1.92;;;7.50;99.90;;;;;;4968586;28;20046;-91
2024/04/02 03:19:20;;;;;;;3.50;1.67;;;7.50;99.90;;;;;;4950814;28;20043;-91
2024/04/02 03:21:46;;;;;;;6.20;2.55;;;7.50;99.90;;;;;;4935382;28;20054;-92
2024/04/02 03:24:12;;;;;;;5.15;2.00;;;7.50;99.90;;;;;;4954947;28;20046;-93
2024/04/02 03:26:38;;;;;;;3.40;1.42;;;7.50;99.90;;;;;;4955037;28;20051;-92
2024/04/02 03:29:03;;;;;;;3.38;1.33;;;7.40;99.90;;;;;;4954502;28;20035;-92
2024/04/02 03:31:29;;;;;;;5.18;1.52;;;7.40;99.90;;;;;;4955296;28;20117;-92
2024/04/02 03:33:57;;;;;;;6.70;2.60;;;7.40;99.90;;;;;;4939167;28;20096;-91
2024/04/02 03:36:23;;;;;;;5.40;2.08;;;7.40;99.90;;;;;;4938819;28;20035;-91
2024/04/02 03:38:49;;;;;;;5.70;2.05;;;7.40;99.90;;;;;;4954016;28;20399;-90
2024/04/02 03:41:16;;;;;;;4.03;1.00;;;7.40;99.90;;;;;;4938689;28;20030;-92
2024/04/02 03:43:42;;;;;;;4.63;1.58;;;7.40;99.90;;;;;;4955255;28;20125;-92
2024/04/02 03:46:09;;;;;;;2.75;1.15;;;7.40;99.90;;;;;;4939157;28;20743;-92
2024/04/02 03:48:36;;;;;;;5.82;1.85;;;7.40;99.90;;;;;;4938383;28;20051;-91
2024/04/02 03:51:02;;;;;;;3.85;1.88;;;7.40;99.90;;;;;;4938478;28;20562;-91
2024/04/02 03:53:27;;;;;;;4.13;1.83;;;7.40;99.90;;;;;;4938683;28;20048;-91
2024/04/02 03:56:02;;;;;;;3.58;1.73;;;7.40;99.90;;;;;;4954101;28;20043;-91
2024/04/02 03:58:29;;;;;;;4.10;1.80;;;7.40;99.90;;;;;;4969559;28;20046;-92
2024/04/02 04:00:56;;;;;;;5.13;2.45;;;7.40;99.90;;;;;;4954669;28;20049;-91
2024/04/02 04:03:25;;;;;;;3.22;1.60;;;7.40;99.90;;;;;;4954577;28;20035;-92
2024/04/02 04:06:04;;;;;;;6.38;2.40;;;7.40;99.90;;;;;;4938558;28;20062;-91
2024/04/02 04:08:34;;;;;;;3.35;1.48;;;7.40;99.90;;;;;;4937990;28;20046;-92
2024/04/02 04:11:00;;;;;;;5.32;2.17;;;7.40;99.90;;;;;;4937041;28;20049;-92
2024/04/02 04:13:26;;;;;;;6.05;2.72;;;7.40;99.90;;;;;;4938319;28;20031;-92
2024/04/02 04:15:59;;;;;;;6.00;2.80;;;7.40;99.90;;;;;;4938041;28;20066;-91
2024/04/02 04:18:26;;;;;;;;;;;7.40;99.90;;;;;;4954361;28;20034;-92
2024/04/02 04:21:02;;;;;;;4.95;2.38;;;7.40;99.90;;;;;;4953560;28;19925;-92
2024/04/02 04:23:29;;;;;;;5.10;2.15;;;7.40;99.90;;;;;;4971536;28;20681;-90
2024/04/02 04:25:59;;;;;;;4.30;1.67;;;7.40;99.90;;;;;;4954439;28;20034;-91
2024/04/02 04:28:25;;;;;;;3.78;1.85;;;7.40;99.90;;;;;;4954378;28;20035;-91
2024/04/02 04:30:53;;;;;;;3.78;1.60;;;7.30;99.90;;;;;;4937984;28;20051;-92
2024/04/02 04:33:19;;;;;;;7.00;2.08;;;7.30;99.90;;;;;;4953756;28;20047;-91
2024/04/02 04:35:45;;;;;;;6.50;2.65;;;7.30;99.90;;;;;;4970122;28;20090;-92
2024/04/02 04:38:10;;;;;;;5.45;2.33;;;7.30;99.90;;;;;;4938628;28;20093;-92
2024/04/02 04:40:36;;;;;;;3.95;1.77;;;7.30;99.90;;;;;;4937580;28;20498;-92
2024/04/02 04:43:02;;;;;;;6.22;2.42;;;7.20;99.90;;;;;;4937847;28;20039;-91
2024/04/02 04:45:28;;;;;;;5.35;2.00;;;7.20;99.90;;;;;;4953662;28;20030;-91
2024/04/02 04:47:55;;;;;;;3.13;1.38;;;7.20;99.90;;;;;;4937181;28;20490;-91
2024/04/02 04:50:21;;;;;;;8.43;2.88;;;7.20;99.90;;;;;;4953456;28;20086;-91
2024/04/02 04:52:46;;;;;;;3.75;1.48;;;7.20;99.90;;;;;;4937685;28;20082;-91
2024/04/02 04:55:12;;;;;;;7.85;1.85;;;7.30;99.90;;;;;;4953583;28;20038;-91
2024/04/02 04:57:38;;;;;;;5.07;1.83;;;7.30;99.90;;;;;;4953318;28;20035;-92
2024/04/02 05:00:04;;;;;;;4.55;2.03;;;7.30;99.90;;;;;;4937309;28;20506;-92
2024/04/02 05:02:30;;;;;;;4.10;1.67;;;7.20;99.90;;;;;;4953542;28;20066;-91
2024/04/02 05:04:56;;;;;;;7.28;2.78;;;7.20;99.90;;;;;;4937170;28;20042;-91
2024/04/02 05:07:23;;;;;;;6.82;2.08;;;7.20;99.90;;;;;;4971206;28;20038;-92
2024/04/02 05:09:49;;;;;;;7.07;2.03;;;7.20;99.90;;;;;;4937149;28;20045;-92
2024/04/02 05:12:15;;;;;;;4.68;1.63;;;7.30;99.90;;;;;;4938664;28;20495;-92
2024/04/02 05:14:41;;;;;;;3.60;1.92;;;7.20;99.90;;;;;;4955746;28;20050;-92
2024/04/02 05:17:06;;;;;;;1.35;0.75;;;7.20;99.90;;;;;;4958770;28;20031;-91
2024/04/02 05:19:32;;;;;;;3.40;1.55;;;7.20;99.90;;;;;;4943767;28;20452;-91
2024/04/02 05:21:58;;;;;;;4.53;2.03;;;7.30;99.90;;;;;;4955676;28;20565;-92
2024/04/02 05:24:23;;;;;;;5.47;1.83;;;7.30;99.90;;;;;;4971132;28;20050;-92
2024/04/02 05:26:50;;;;;;;2.83;0.90;;;7.30;99.90;;;;;;4953004;28;20031;-91
2024/04/02 05:29:16;;;;;;;4.72;1.67;;;7.30;99.90;;;;;;4937079;28;20181;-91
2024/04/02 05:31:42;;;;;;;7.20;2.22;;;7.30;99.90;;;;;;4953381;28;20097;-92
2024/04/02 05:34:08;;;;;;;8.27;2.40;;;7.30;99.90;;;;;;4953272;28;20042;-92
2024/04/02 05:36:34;;;;;;;4.80;2.00;;;7.30;99.90;;;;;;4936344;28;20039;-92
2024/04/02 05:38:59;;;;;;;4.38;1.25;;;7.30;99.90;;;;;;4954567;28;20422;-93
2024/04/02 05:41:25;;;;;;;3.83;1.70;;;7.40;99.90;;;;;;4952897;28;20112;-92
2024/04/02 05:43:51;;;;;;;4.30;1.55;;;7.40;99.90;;;;;;4970830;28;20042;-93
2024/04/02 05:46:16;;;;;;;9.52;2.90;;;7.50;99.90;;;;;;4952554;28;20046;-93
2024/04/02 05:48:45;;;;;;;2.47;1.02;;;7.60;99.90;;;;;;4936478;28;20042;-93
2024/04/02 05:51:11;;;;;;;3.25;1.10;;;7.60;99.90;;;;;;4936820;28;20423;-93
2024/04/02 05:53:36;;;;;;;5.35;1.70;;;7.70;99.90;;;;;;4952726;28;20038;-93
2024/04/02 05:56:05;;;;;;;4.13;1.38;;;7.70;99.90;;;;;;4952160;28;20558;-92
2024/04/02 05:58:31;;;;;;;1.98;1.02;;;7.80;99.90;;;;;;4952355;28;20411;-92
2024/04/02 06:01:06;;;;;;;1.95;1.15;;;7.80;99.90;;;;;;4952199;28;20122;-92
2024/04/02 06:03:32;;;;;;;5.05;1.98;;;7.90;99.90;;;;;;4936874;28;20074;-93
2024/04/02 06:05:59;;;;;;;9.18;2.45;;;7.90;99.90;;;;;;4957078;28;20042;-93
2024/04/02 06:08:25;;;;;;;5.22;1.77;;;7.90;99.90;;;;;;4952164;28;20054;-93
2024/04/02 06:10:50;;;;;;;8.90;2.03;;;8.00;99.90;;;;;;4953042;28;20043;-93
2024/04/02 06:13:16;;;;;;;4.05;1.63;;;8.00;99.90;;;;;;4936496;28;20559;-93
2024/04/02 06:15:42;;;;;;;4.45;1.98;;;8.00;99.90;;;;;;4952138;28;20154;-93
2024/04/02 06:18:09;;;;;;;6.30;1.80;;;8.00;99.90;;;;;;4952989;28;20045;-93
2024/04/02 06:20:34;;;;;;;5.13;2.20;;;8.10;99.90;;;;;;4951405;28;20057;-93
2024/04/02 06:23:00;;;;;;;4.95;1.67;;;8.10;99.90;;;;;;4952194;28;20502;-92
2024/04/02 06:25:26;;;;;;;4.30;1.65;;;8.20;99.90;;;;;;4936454;28;20042;-92
2024/04/02 06:27:52;;;;;;;3.63;2.15;;;8.20;99.90;;;;;;4952376;28;20395;-93
2024/04/02 06:30:18;;;;;;;5.28;2.03;;;8.30;99.90;;;;;;4936024;28;20038;-92
2024/04/02 06:32:43;;;;;;;2.97;1.27;;;8.30;99.90;;;;;;4951873;28;20038;-91
2024/04/02 06:35:09;;;;;;;4.00;1.63;;;8.40;99.90;;;;;;4936343;28;20499;-92
2024/04/02 06:37:34;;;;;;;6.07;1.75;;;8.40;99.90;;;;;;4951099;28;20042;-92
2024/04/02 06:40:00;;;;;;;1.70;0.77;;;8.40;99.90;;;;;;4967677;28;20528;-92
2024/04/02 06:42:26;;;;;;;3.25;1.33;;;8.40;99.90;;;;;;4950682;28;20085;-92
2024/04/02 06:44:54;;;;;;;4.50;1.92;;;8.40;99.90;;;;;;4934536;28;20038;-91
2024/04/02 06:47:20;;;;;;;4.80;1.55;;;8.40;99.90;;;;;;4951857;28;20043;-91
2024/04/02 06:49:46;;;;;;;2.67;0.98;;;8.50;99.90;;;;;;4934225;28;20031;-91
2024/04/02 06:52:11;;;;;;;6.30;2.03;;;8.50;99.90;;;;;;4934990;28;20117;-92
2024/04/02 06:54:37;;;;;;;6.70;1.98;;;8.50;99.90;;;;;;4935001;28;20043;-92
2024/04/02 06:57:03;;;;;;;3.97;1.25;;;8.60;99.90;;;;;;4934643;28;20123;-92
2024/04/02 06:59:29;;;;;;;7.70;3.38;;;8.60;99.90;;;;;;4953814;28;20499;-92
2024/04/02 07:01:55;;;;;;;1.80;0.75;;;8.60;99.90;;;;;;4929208;28;20660;-92
2024/04/02 07:04:20;;;;;;;4.22;1.42;;;8.70;99.90;;;;;;4969644;28;20037;-93
2024/04/02 07:06:46;;;;;;;4.10;1.55;;;8.70;99.90;;;;;;4951287;28;20129;-92
2024/04/02 07:09:12;;;;;;;7.95;2.45;;;8.70;99.90;;;;;;4971172;28;20053;-92
2024/04/02 07:11:37;;;;;;;7.55;2.25;;;8.80;99.90;;;;;;4938042;28;20042;-92
2024/04/02 07:14:03;;;;;;;3.65;1.33;;;8.80;99.90;;;;;;4938447;28;20149;-91
2024/04/02 07:16:29;;;;;;;5.43;1.90;;;8.90;99.90;;;;;;4953679;28;20273;-91
2024/04/02 07:18:54;;;;;;;4.20;1.75;;;8.90;99.90;;;;;;4952661;28;20465;-92
2024/04/02 07:21:20;;;;;;;7.82;2.13;;;8.90;99.90;;;;;;4955031;28;20410;-91
2024/04/02 07:23:45;;;;;;;7.70;1.75;;;9.00;99.90;;;;;;4937275;28;20088;-92
2024/04/02 07:26:11;;;;;;;6.88;2.13;;;9.00;99.90;;;;;;4937303;28;20498;-91
2024/04/02 07:28:37;;;;;;;6.80;1.92;;;9.00;99.90;;;;;;4938827;28;20038;-91
2024/04/02 07:31:03;;;;;;;6.03;1.48;;;9.10;99.90;;;;;;4953332;28;20422;-92
2024/04/02 07:33:29;;;;;;;6.25;2.10;;;9.20;99.90;;;;;;4953161;28;20038;-92
2024/04/02 07:35:58;;;;;;;3.63;1.40;;;9.20;99.90;;;;;;4952908;28;20051;-91
2024/04/02 07:38:24;;;;;;;13.13;2.05;;;9.30;99.90;;;;;;4937656;28;20038;-92
2024/04/02 07:40:50;;;;;;;5.50;1.90;;;9.30;99.90;;;;;;4956315;28;20038;-92
2024/04/02 07:43:16;;;;;;;4.20;1.58;;;9.30;99.90;;;;;;4940866;28;20034;-92
2024/04/02 07:45:49;;;;;;;6.13;2.03;;;9.30;99.90;;;;;;4961791;28;20094;-92
2024/04/02 07:48:14;;;;;;;4.13;1.38;;;9.40;99.90;;;;;;4974413;28;20053;-92
2024/04/02 07:50:40;;;;;;;7.78;1.92;;;9.40;99.90;;;;;;4935287;28;20042;-92
2024/04/02 07:53:06;;;;;;;4.90;2.17;;;9.40;99.90;;;;;;4937002;28;20042;-92
2024/04/02 07:55:31;;;;;;;2.00;0.95;;;9.50;99.90;;;;;;4936636;28;20031;-92
2024/04/02 07:57:57;;;;;;;2.15;0.93;;;9.50;99.90;;;;;;4936136;28;20483;-91
2024/04/02 08:00:23;;;;;;;6.35;2.17;;;9.50;99.90;;;;;;4933195;28;20047;-92
2024/04/02 08:02:48;;;;;;;4.40;1.88;;;9.60;99.90;;;;;;4966238;28;20676;-92
2024/04/02 08:05:15;;;;;;;2.47;1.23;;;9.60;99.90;;;;;;4951613;28;20532;-93
2024/04/02 08:07:41;;;;;;;5.18;1.83;;;9.60;99.90;;;;;;4952080;28;20414;-92
2024/04/02 08:10:07;;;;;;;5.15;2.22;;;9.60;99.90;;;;;;4936327;28;20038;-92
2024/04/02 08:12:33;;;;;;;5.22;2.00;;;9.60;99.90;;;;;;4937240;28;20038;-92
2024/04/02 08:14:58;;;;;;;4.70;1.92;;;9.60;99.90;;;;;;4972397;28;20290;-92
2024/04/02 08:17:24;;;;;;;5.05;1.83;;;9.60;99.90;;;;;;4953132;28;20031;-92
2024/04/02 08:19:50;;;;;;;4.78;1.92;;;9.70;99.90;;;;;;4954245;28;20410;-92
2024/04/02 08:22:18;;;;;;;4.88;1.92;;;9.70;99.90;;;;;;4953814;28;20533;-92
2024/04/02 08:24:43;;;;;;;4.10;1.75;;;9.70;99.90;;;;;;4970090;28;20050;-92
2024/04/02 08:27:09;;;;;;;5.53;1.38;;;9.80;99.90;;;;;;4938151;28;20038;-91
2024/04/02 08:29:35;;;;;;;4.10;1.70;;;9.90;99.90;;;;;;4970346;28;20074;-92
2024/04/02 08:32:00;;;;;;;5.93;1.98;;;10.00;99.90;;;;;;4952998;28;20388;-92
2024/04/02 08:34:26;;;;;;;4.00;1.58;;;10.00;99.90;;;;;;4953685;28;20101;-92
2024/04/02 08:36:51;;;;;;;3.78;1.83;;;10.20;99.90;;;;;;4936039;28;20053;-93
2024/04/02 08:39:17;;;;;;;5.30;2.17;;;10.20;99.90;;;;;;4936639;28;20038;-92
2024/04/02 08:41:43;;;;;;;4.70;1.85;;;10.30;99.90;;;;;;4953825;28;20042;-92
2024/04/02 08:44:09;;;;;;;4.40;1.48;;;10.40;99.90;;;;;;4952070;28;20038;-93
2024/04/02 08:46:35;;;;;;;3.45;1.08;;;10.40;99.90;;;;;;4936518;28;20035;-92
2024/04/02 08:49:02;;;;;;;4.93;2.08;;;10.40;99.90;;;;;;4951754;28;20101;-92
2024/04/02 08:51:29;;;;;;;5.10;1.67;;;10.50;99.90;;;;;;4935945;28;20121;-92
2024/04/02 08:53:55;;;;;;;3.45;1.17;;;10.60;99.90;;;;;;4952819;28;20039;-92
2024/04/02 08:56:21;;;;;;;5.03;2.15;;;10.60;99.90;;;;;;4951889;28;20035;-92
2024/04/02 08:58:47;;;;;;;3.80;1.70;;;10.60;99.90;;;;;;4953142;28;20042;-92
2024/04/02 09:01:16;;;;;;;6.80;2.35;;;10.70;99.90;;;;;;4952846;28;20113;-92
2024/04/02 09:03:42;;;;;;;5.15;2.13;;;10.60;99.90;;;;;;4970308;28;20117;-92
2024/04/02 09:06:08;;;;;;;7.20;2.40;;;10.60;99.90;;;;;;4937474;28;20133;-91
2024/04/02 09:08:43;;;;;;;7.03;3.45;;;10.50;99.90;;;;;;4952198;28;20046;-92
2024/04/02 09:11:09;;;;;;;6.85;3.17;;;10.50;99.90;;;;;;4953721;28;20042;-92
2024/04/02 09:13:36;;;;;;;5.72;2.72;;;10.40;99.90;;;;;;4950099;28;20039;-93
2024/04/02 09:16:01;;;;;;;9.40;3.05;;;10.40;99.90;;;;;;4935836;28;20039;-92
2024/04/02 09:18:32;;;;;;;7.15;3.58;;;10.40;99.90;;;;;;4951862;28;20116;-92
2024/04/02 09:21:00;;;;;;;5.38;2.25;;;10.40;99.90;;;;;;4967825;28;20039;-93
2024/04/02 09:23:25;;;;;;;5.85;2.53;;;10.40;99.90;;;;;;4936913;28;20121;-91
2024/04/02 09:25:51;;;;;;;11.38;2.70;;;10.50;99.90;;;;;;4953126;28;20170;-93
2024/04/02 09:28:17;;;;;;;11.82;3.33;;;10.50;99.90;;;;;;4937258;28;20034;-92
2024/04/02 09:30:42;;;;;;;4.93;2.42;;;10.60;99.90;;;;;;4950987;28;20491;-92
2024/04/02 09:33:10;;;;;;;9.40;2.70;;;10.70;99.90;;;;;;4952967;28;20035;-91
2024/04/02 09:35:58;;;;;;;4.72;2.30;;;10.70;99.90;;;;;;4936045;28;20074;-91
2024/04/02 09:38:24;;;;;;;6.18;2.28;;;10.80;99.90;;;;;;4934860;28;20045;-92
2024/04/02 09:40:51;;;;;;;9.38;3.58;;;10.80;99.90;;;;;;4936678;28;20401;-92
2024/04/02 09:43:20;;;;;;;7.18;3.08;;;10.90;99.90;;;;;;4936011;28;20035;-91
2024/04/02 09:45:48;;;;;;;6.25;2.45;;;10.90;99.90;;;;;;4935450;28;20050;-92
2024/04/02 09:48:16;;;;;;;6.53;2.70;;;11.00;99.90;;;;;;4969861;28;20178;-93
2024/04/02 09:50:43;;;;;;;7.65;2.92;;;11.00;99.90;;;;;;4951533;28;20059;-92
2024/04/02 09:53:10;;;;;;;13.18;3.00;;;11.10;99.90;;;;;;4952185;28;20117;-92
2024/04/02 09:55:36;;;;;;;7.70;2.55;;;11.10;99.90;;;;;;4935851;28;20042;-92
2024/04/02 09:58:02;;;;;;;3.70;2.00;;;11.10;99.90;;;;;;4935631;28;20066;-92
2024/04/02 10:00:31;;;;;;;4.57;2.40;;;11.20;99.90;;;;;;4951751;28;20117;-92
2024/04/02 10:03:00;;;;;;;4.57;2.78;;;11.30;99.90;;;;;;4933754;28;20096;-92
2024/04/02 10:05:26;;;;;;;18.95;7.25;;;11.30;99.90;;;;;;4952508;28;20121;-92
2024/04/02 10:07:52;;;;;;;5.15;2.33;;;11.40;99.90;;;;;;4952528;28;20174;-92
2024/04/02 10:10:18;;;;;;;6.03;1.92;;;11.40;99.90;;;;;;4971267;28;20051;-93
2024/04/02 10:12:52;;;;;;;4.35;2.05;;;11.40;99.90;;;;;;4937962;28;20034;-93
2024/04/02 10:15:19;;;;;;;5.28;1.65;;;11.40;99.90;;;;;;4948835;28;20043;-92
2024/04/02 10:17:44;;;;;;;5.90;2.25;;;11.30;99.90;;;;;;4952892;28;20043;-92
2024/04/02 10:20:27;;;;;;;6.28;2.60;;;11.30;99.90;;;;;;4949205;28;20094;-93
2024/04/02 10:22:53;;;;;;;;;;;11.30;99.90;;;;;;4935205;28;20046;-93
2024/04/02 10:25:19;;;;;;;6.47;2.70;;;11.40;99.90;;;;;;4968898;28;19918;-92
2024/04/02 10:27:47;;;;;;;8.35;2.58;;;11.50;99.90;;;;;;4951821;28;20038;-92
2024/04/02 10:30:27;;;;;;;6.75;2.78;;;11.50;99.90;;;;;;4934437;28;20042;-93
2024/04/02 10:32:54;;;;;;;5.43;2.33;;;11.40;99.90;;;;;;4950477;28;20043;-92
2024/04/02 10:35:21;;;;;;;8.63;3.10;;;11.20;99.90;;;;;;4951091;28;20038;-93
2024/04/02 10:37:55;;;;;;;14.25;3.70;;;11.10;99.90;;;;;;4934232;28;20395;-92
2024/04/02 10:40:21;;;;;;;8.40;2.58;;;11.00;99.90;;;;;;4950110;28;20119;-92
2024/04/02 10:42:48;;;;;;;7.88;4.00;;;10.90;99.90;;;;;;4934560;28;20046;-91
2024/04/02 10:45:18;;;;;;;4.50;2.35;;;10.80;99.90;;;;;;4934835;28;20042;-92
2024/04/02 10:47:48;;;;;;;10.13;4.47;;;10.90;99.90;;;;;;4934262;28;20043;-93
2024/04/02 10:50:15;;;;;;;10.73;5.18;;;10.90;99.90;;;;;;4967689;28;20049;-92
2024/04/02 10:52:40;;;;;;;8.38;3.85;;;11.00;99.90;;;;;;4949437;28;20035;-91
2024/04/02 10:55:06;;;;;;;10.25;4.25;;;11.10;99.90;;;;;;4970229;28;20031;-91
2024/04/02 10:57:36;;;;;;;10.18;4.10;;;11.30;99.90;;;;;;4949643;28;20585;-91
2024/04/02 11:00:05;;;;;;;4.38;2.35;;;11.40;99.90;;;;;;4951104;28;20057;-92
2024/04/02 11:02:31;;;;;;;11.05;5.18;;;11.60;99.90;;;;;;4951221;28;20400;-91
2024/04/02 11:04:58;;;;;;;10.10;3.55;;;11.70;99.90;;;;;;4933836;28;20042;-92
2024/04/02 11:07:27;;;;;;;7.38;3.33;;;11.80;99.90;;;;;;4950129;28;20031;-92
2024/04/02 11:09:53;;;;;;;6.15;2.85;;;11.80;99.90;;;;;;4949999;28;20061;-92
2024/04/02 11:12:20;;;;;;;14.82;9.38;;;11.90;99.90;;;;;;4949481;28;20031;-92
2024/04/02 11:14:54;;;;;;;11.35;4.30;;;12.00;99.90;;;;;;4966636;28;20070;-91
2024/04/02 11:17:20;;;;;;;6.45;3.13;;;12.10;99.90;;;;;;4932930;28;20507;-92
2024/04/02 11:19:47;;;;;;;5.93;2.53;;;12.00;99.90;;;;;;4949387;28;20046;-92
2024/04/02 11:25:14;;;;;;;7.80;2.75;;;11.90;99.90;;;;;;4949901;28;20503;-92
2024/04/02 11:27:44;;;;;;;5.68;2.85;;;11.90;99.90;;;;;;4950640;28;20046;-92
2024/04/02 11:30:10;;;;;;;9.98;3.83;;;11.90;99.90;;;;;;4932308;28;20057;-92
2024/04/02 11:32:36;;;;;;;18.17;8.35;;;11.90;99.90;;;;;;4935048;28;20085;-93
2024/04/02 11:35:11;;;;;;;10.18;2.67;;;12.00;99.90;;;;;;4951548;28;20415;-92
2024/04/02 11:37:37;;;;;;;6.03;2.47;;;11.90;99.90;;;;;;4932291;28;20133;-93
2024/04/02 11:40:04;;;;;;;12.48;3.72;;;11.90;99.90;;;;;;4950290;28;20061;-92
2024/04/02 11:42:30;;;;;;;11.57;3.95;;;11.90;99.90;;;;;;4933891;28;20126;-92
2024/04/02 11:45:06;;;;;;;7.78;3.20;;;12.00;99.90;;;;;;4951811;28;20070;-92
2024/04/02 11:47:33;;;;;;;5.30;2.05;;;12.00;99.90;;;;;;4937680;28;20082;-93
2024/04/02 11:49:59;;;;;;;10.35;4.13;;;12.00;99.90;;;;;;4953407;28;20123;-92
2024/04/02 11:52:25;;;;;;;6.65;2.50;;;12.00;99.90;;;;;;4938222;28;20058;-92
2024/04/02 11:54:51;;;;;;;7.90;2.63;;;11.90;99.90;;;;;;4936862;28;20069;-93
2024/04/02 12:00:19;;;;;;;5.13;2.22;;;11.90;99.90;;;;;;4952742;28;20066;-92
2024/04/02 12:02:46;;;;;;;11.95;4.38;;;11.80;99.90;;;;;;4953426;28;20030;-92
2024/04/02 12:05:12;;;;;;;11.38;3.97;;;11.80;99.90;;;;;;4939010;28;20039;-92
2024/04/02 12:07:38;;;;;;;5.97;2.50;;;11.70;99.90;;;;;;4951985;28;20046;-92
2024/04/02 12:10:06;;;;;;;4.60;1.50;;;11.70;99.90;;;;;;4954119;28;20041;-93
2024/04/02 12:12:32;;;;;;;4.97;2.15;;;11.60;99.90;;;;;;4938320;28;20038;-91
2024/04/02 12:14:59;;;;;;;9.95;2.55;;;11.50;99.90;;;;;;4937870;28;20043;-94
2024/04/02 12:17:25;;;;;;;9.35;3.72;;;11.40;99.90;;;;;;4936881;28;20499;-93
2024/04/02 12:19:52;;;;;;;9.82;3.55;;;11.40;99.90;;;;;;4952790;28;20050;-93
2024/04/02 12:22:18;;;;;;;13.20;6.90;;;11.50;99.90;;;;;;4953650;28;20081;-93
2024/04/02 12:24:44;;;;;;;6.57;2.75;;;11.60;99.90;;;;;;4936464;28;20419;-91
2024/04/02 12:27:10;;;;;;;6.97;2.90;;;11.60;99.90;;;;;;4953817;28;20043;-93
2024/04/02 12:29:36;;;;;;;6.47;2.67;;;11.70;99.90;;;;;;4952256;28;20027;-93
2024/04/02 12:32:03;;;;;;;8.32;2.88;;;11.70;99.90;;;;;;4937975;28;20054;-92
2024/04/02 12:34:29;;;;;;;8.05;3.50;;;11.70;99.90;;;;;;4937050;28;20078;-93
2024/04/02 12:36:55;;;;;;;10.35;3.60;;;11.80;99.90;;;;;;4937199;28;20085;-92
2024/04/02 12:39:21;;;;;;;9.75;3.08;;;11.80;99.90;;;;;;4943587;28;20498;-92
2024/04/02 12:41:49;;;;;;;6.28;2.40;;;11.80;99.90;;;;;;4961227;28;20031;-92
2024/04/02 12:44:16;;;;;;;9.25;3.20;;;11.60;99.90;;;;;;4953596;28;20514;-92
2024/04/02 12:46:41;;;;;;;6.65;2.45;;;11.60;99.90;;;;;;4937861;28;20043;-92
2024/04/02 12:49:09;;;;;;;12.55;2.80;;;11.60;99.90;;;;;;4970094;28;20038;-91
2024/04/02 12:51:35;;;;;;;12.18;2.97;;;11.70;99.90;;;;;;4937631;28;20039;-91
2024/04/02 12:54:01;;;;;;;9.77;2.75;;;11.80;99.90;;;;;;4935973;28;20057;-92
2024/04/02 12:56:27;;;;;;;9.15;2.30;;;12.30;99.90;;;;;;4935548;28;20046;-91